createdAt,value
2024-02-28T00:01:06.904Z,142.73
2024-02-28T00:02:40.158Z,123.93
2024-02-28T00:04:12.560Z,114.53
2024-02-28T00:05:46.874Z,113.53
2024-02-28T00:07:19.879Z,116.57
2024-02-28T00:08:55.434Z,114.03
2024-02-28T00:10:27.643Z,112.20
2024-02-28T00:12:02.210Z,126.50
2024-02-28T00:13:35.339Z,116.40
2024-02-28T00:15:11.720Z,112.93
2024-02-28T00:16:45.671Z,118.10
2024-02-28T00:18:18.077Z,123.90
2024-02-28T00:19:51.278Z,116.70
2024-02-28T00:21:23.423Z,120.33
2024-02-28T00:22:56.555Z,110.77
2024-02-28T00:24:30.686Z,110.27
2024-02-28T00:26:02.920Z,113.37
2024-02-28T00:27:37.426Z,127.63
2024-02-28T00:29:09.578Z,117.40
2024-02-28T00:30:42.912Z,116.13
2024-02-28T00:32:15.075Z,113.37
2024-02-28T00:33:48.303Z,99.50
2024-02-28T00:35:20.395Z,99.93
2024-02-28T00:36:56.275Z,96.53
2024-02-28T00:38:29.988Z,100.77
2024-02-28T00:40:02.088Z,98.90
2024-02-28T00:41:35.156Z,89.93
2024-02-28T00:43:08.641Z,85.00
2024-02-28T00:44:43.478Z,95.77
2024-02-28T00:46:15.562Z,94.67
2024-02-28T00:47:48.648Z,87.40
2024-02-28T00:49:22.173Z,88.77
2024-02-28T00:50:54.488Z,83.93
2024-02-28T00:52:27.688Z,78.93
2024-02-28T00:53:59.784Z,86.87
2024-02-28T00:55:32.863Z,87.93
2024-02-28T00:57:05.396Z,87.00
2024-02-28T00:58:39.859Z,85.60
2024-02-28T01:00:12.985Z,80.93
2024-02-28T01:01:46.270Z,76.30
2024-02-28T01:03:19.558Z,83.53
2024-02-28T01:04:52.781Z,75.87
2024-02-28T01:06:24.944Z,81.13
2024-02-28T01:07:58.362Z,84.13
2024-02-28T01:09:31.452Z,75.00
2024-02-28T01:11:04.008Z,76.83
2024-02-28T01:12:37.155Z,78.00
2024-02-28T01:14:12.457Z,71.80
2024-02-28T01:15:44.607Z,69.90
2024-02-28T01:17:17.756Z,71.13
2024-02-28T01:18:49.893Z,80.60
2024-02-28T01:20:23.345Z,75.37
2024-02-28T01:21:55.490Z,85.77
2024-02-28T01:23:28.868Z,80.90
2024-02-28T01:25:02.018Z,80.93
2024-02-28T01:26:34.280Z,79.93
2024-02-28T01:28:07.573Z,92.60
2024-02-28T01:29:41.033Z,80.97
2024-02-28T01:31:14.129Z,84.77
2024-02-28T01:32:47.079Z,84.53
2024-02-28T01:34:20.571Z,79.57
2024-02-28T01:35:54.667Z,80.60
2024-02-28T01:37:28.843Z,80.00
2024-02-28T01:39:02.396Z,79.40
2024-02-28T01:40:34.509Z,75.43
2024-02-28T01:42:07.634Z,71.00
2024-02-28T01:43:39.849Z,76.03
2024-02-28T01:45:16.673Z,70.60
2024-02-28T01:46:48.972Z,77.10
2024-02-28T01:48:22.401Z,70.07
2024-02-28T01:49:55.340Z,71.20
2024-02-28T01:51:29.709Z,67.10
2024-02-28T01:53:02.937Z,67.50
2024-02-28T01:54:37.150Z,66.43
2024-02-28T01:56:09.868Z,66.87
2024-02-28T01:57:43.558Z,67.27
2024-02-28T01:59:17.423Z,59.57
2024-02-28T02:00:52.394Z,66.87
2024-02-28T02:02:24.599Z,63.93
2024-02-28T02:03:57.965Z,64.37
2024-02-28T02:05:30.204Z,61.33
2024-02-28T02:07:03.475Z,61.53
2024-02-28T02:08:35.952Z,55.87
2024-02-28T02:10:11.634Z,59.50
2024-02-28T02:11:43.854Z,66.83
2024-02-28T02:13:17.070Z,66.47
2024-02-28T02:14:49.511Z,63.07
2024-02-28T02:16:27.094Z,58.80
2024-02-28T02:17:59.414Z,65.50
2024-02-28T02:19:32.665Z,60.43
2024-02-28T02:21:08.795Z,65.23
2024-02-28T02:22:42.484Z,66.43
2024-02-28T02:24:15.636Z,60.17
2024-02-28T02:25:48.646Z,64.37
2024-02-28T02:27:21.782Z,68.30
2024-02-28T02:28:53.929Z,65.50
2024-02-28T02:30:27.079Z,68.30
2024-02-28T02:31:59.703Z,68.97
2024-02-28T02:33:32.865Z,70.63
2024-02-28T02:35:05.778Z,69.50
2024-02-28T02:36:38.896Z,68.97
2024-02-28T02:38:12.432Z,70.07
2024-02-28T02:39:45.895Z,75.93
2024-02-28T02:41:19.030Z,78.63
2024-02-28T02:42:52.273Z,79.00
2024-02-28T02:44:24.469Z,75.10
2024-02-28T02:45:57.849Z,74.40
2024-02-28T02:47:32.037Z,78.50
2024-02-28T02:49:04.211Z,72.43
2024-02-28T02:50:37.386Z,69.47
2024-02-28T02:52:09.505Z,75.63
2024-02-28T02:53:43.933Z,71.33
2024-02-28T02:55:17.222Z,66.80
2024-02-28T02:56:49.348Z,67.20
2024-02-28T02:58:22.688Z,64.43
2024-02-28T02:59:54.799Z,73.60
2024-02-28T03:01:28.065Z,67.93
2024-02-28T03:03:00.179Z,62.50
2024-02-28T03:04:33.289Z,73.30
2024-02-28T03:06:06.102Z,67.40
2024-02-28T03:07:39.513Z,68.53
2024-02-28T03:09:14.001Z,64.13
2024-02-28T03:10:47.190Z,59.77
2024-02-28T03:12:19.355Z,62.37
2024-02-28T03:13:52.873Z,74.03
2024-02-28T03:15:25.072Z,68.07
2024-02-28T03:16:58.582Z,68.73
2024-02-28T03:18:30.693Z,73.43
2024-02-28T03:20:04.256Z,70.03
2024-02-28T03:21:36.433Z,73.43
2024-02-28T03:23:09.532Z,67.80
2024-02-28T03:24:43.364Z,81.40
2024-02-28T03:26:17.088Z,86.03
2024-02-28T03:27:49.453Z,90.73
2024-02-28T03:29:22.871Z,80.50
2024-02-28T03:30:55.085Z,78.17
2024-02-28T03:32:28.406Z,81.17
2024-02-28T03:34:01.714Z,78.30
2024-02-28T03:35:33.882Z,90.97
2024-02-28T03:37:07.147Z,73.10
2024-02-28T03:38:40.227Z,69.87
2024-02-28T03:40:15.699Z,77.07
2024-02-28T03:41:48.845Z,73.77
2024-02-28T03:43:21.269Z,71.63
2024-02-28T03:44:54.360Z,75.27
2024-02-28T03:46:26.510Z,77.63
2024-02-28T03:47:59.724Z,73.73
2024-02-28T03:49:31.844Z,75.70
2024-02-28T03:51:05.520Z,72.47
2024-02-28T03:52:38.601Z,75.60
2024-02-28T03:54:10.838Z,77.77
2024-02-28T03:55:46.567Z,78.40
2024-02-28T03:57:19.677Z,68.03
2024-02-28T03:58:52.317Z,79.77
2024-02-28T04:00:26.851Z,86.03
2024-02-28T04:01:59.122Z,77.50
2024-02-28T04:03:32.721Z,85.47
2024-02-28T04:05:05.685Z,79.97
2024-02-28T04:06:38.929Z,86.77
2024-02-28T04:08:11.411Z,75.67
2024-02-28T04:09:44.549Z,70.70
2024-02-28T04:11:18.094Z,78.77
2024-02-28T04:12:51.298Z,80.70
2024-02-28T04:14:23.497Z,77.27
2024-02-28T04:15:56.742Z,75.87
2024-02-28T04:17:28.957Z,76.70
2024-02-28T04:19:02.142Z,77.73
2024-02-28T04:20:34.255Z,80.13
2024-02-28T04:22:07.367Z,73.70
2024-02-28T04:23:39.489Z,79.97
2024-02-28T04:25:12.857Z,80.97
2024-02-28T04:26:47.302Z,78.73
2024-02-28T04:28:19.450Z,75.20
2024-02-28T04:29:52.639Z,81.97
2024-02-28T04:31:24.741Z,72.07
2024-02-28T04:32:58.018Z,66.43
2024-02-28T04:34:30.140Z,59.97
2024-02-28T04:36:03.271Z,56.77
2024-02-28T04:37:37.501Z,65.97
2024-02-28T04:39:09.905Z,69.33
2024-02-28T04:40:42.977Z,62.90
2024-02-28T04:42:17.594Z,71.47
2024-02-28T04:43:50.777Z,63.40
2024-02-28T04:45:22.951Z,62.33
2024-02-28T04:46:56.027Z,65.53
2024-02-28T04:48:28.246Z,69.13
2024-02-28T04:50:01.389Z,70.97
2024-02-28T04:51:34.488Z,68.90
2024-02-28T04:53:06.670Z,66.87
2024-02-28T04:54:42.467Z,67.67
2024-02-28T04:56:14.721Z,67.97
2024-02-28T04:57:49.337Z,64.60
2024-02-28T04:59:21.646Z,63.03
2024-02-28T05:00:54.865Z,64.40
2024-02-28T05:02:27.221Z,63.70
2024-02-28T05:04:00.702Z,64.90
2024-02-28T05:05:32.952Z,57.73
2024-02-28T05:07:08.378Z,61.57
2024-02-28T05:08:40.706Z,61.73
2024-02-28T05:10:13.873Z,62.47
2024-02-28T05:11:46.125Z,68.30
2024-02-28T05:13:20.978Z,65.97
2024-02-28T05:14:55.253Z,64.47
2024-02-28T05:16:28.760Z,62.87
2024-02-28T05:18:01.887Z,63.70
2024-02-28T05:19:34.035Z,60.77
2024-02-28T05:21:07.829Z,59.67
2024-02-28T05:22:41.590Z,64.17
2024-02-28T05:24:14.843Z,63.93
2024-02-28T05:25:48.057Z,69.27
2024-02-28T05:27:21.152Z,61.10
2024-02-28T05:28:54.605Z,65.30
2024-02-28T05:30:27.824Z,68.80
2024-02-28T05:31:59.985Z,56.73
2024-02-28T05:33:33.082Z,59.57
2024-02-28T05:35:06.049Z,63.97
2024-02-28T05:36:39.252Z,62.63
2024-02-28T05:38:11.406Z,64.10
2024-02-28T05:39:44.570Z,63.03
2024-02-28T05:41:18.141Z,67.23
2024-02-28T05:42:51.235Z,71.63
2024-02-28T05:44:25.777Z,65.33
2024-02-28T05:45:58.988Z,63.90
2024-02-28T05:47:32.478Z,61.13
2024-02-28T05:49:05.789Z,57.33
2024-02-28T05:50:37.992Z,67.90
2024-02-28T05:52:12.711Z,65.00
2024-02-28T05:53:44.922Z,61.50
2024-02-28T05:55:18.286Z,57.20
2024-02-28T05:56:50.385Z,61.87
2024-02-28T05:58:23.473Z,58.93
2024-02-28T05:59:57.282Z,62.13
2024-02-28T06:01:30.447Z,60.73
2024-02-28T06:03:02.881Z,60.50
2024-02-28T06:04:36.034Z,62.93
2024-02-28T06:06:08.582Z,63.80
2024-02-28T06:07:41.675Z,66.17
2024-02-28T06:09:13.815Z,60.13
2024-02-28T06:10:48.096Z,62.87
2024-02-28T06:12:21.379Z,66.90
2024-02-28T06:13:53.546Z,68.07
2024-02-28T06:15:28.299Z,60.30
2024-02-28T06:17:01.791Z,68.33
2024-02-28T06:18:34.898Z,63.90
2024-02-28T06:20:09.434Z,66.03
2024-02-28T06:21:41.574Z,69.90
2024-02-28T06:23:20.332Z,63.20
2024-02-28T06:25:00.565Z,58.63
2024-02-28T06:26:33.043Z,66.63
2024-02-28T06:28:07.928Z,68.93
2024-02-28T06:29:40.131Z,60.67
2024-02-28T06:31:16.951Z,69.07
2024-02-28T06:32:49.125Z,62.17
2024-02-28T06:34:23.430Z,66.00
2024-02-28T06:35:55.631Z,68.63
2024-02-28T06:37:29.078Z,70.97
2024-02-28T06:39:01.208Z,79.10
2024-02-28T06:40:34.348Z,79.50
2024-02-28T06:42:06.793Z,79.17
2024-02-28T06:43:39.913Z,74.53
2024-02-28T06:45:12.137Z,75.07
2024-02-28T06:46:46.694Z,82.00
2024-02-28T06:48:18.814Z,72.83
2024-02-28T06:49:53.201Z,75.23
2024-02-28T06:51:26.323Z,80.10
2024-02-28T06:52:59.816Z,70.30
2024-02-28T06:54:33.018Z,71.17
2024-02-28T06:56:06.714Z,70.50
2024-02-28T06:57:39.363Z,78.70
2024-02-28T06:59:12.513Z,71.53
2024-02-28T07:00:44.825Z,72.60
2024-02-28T07:02:19.361Z,74.63
2024-02-28T07:03:51.563Z,66.47
2024-02-28T07:05:25.443Z,73.47
2024-02-28T07:06:57.583Z,64.57
2024-02-28T07:08:30.747Z,61.37
2024-02-28T07:10:05.797Z,65.23
2024-02-28T07:11:39.918Z,69.10
2024-02-28T07:13:12.115Z,62.73
2024-02-28T07:14:45.387Z,63.80
2024-02-28T07:16:17.575Z,63.30
2024-02-28T07:17:52.174Z,57.67
2024-02-28T07:19:24.302Z,56.33
2024-02-28T07:20:57.466Z,54.13
2024-02-28T07:22:29.602Z,56.40
2024-02-28T07:24:03.900Z,53.47
2024-02-28T07:25:36.030Z,52.47
2024-02-28T07:27:09.440Z,48.53
2024-02-28T07:28:42.525Z,52.37
2024-02-28T07:30:14.852Z,51.83
2024-02-28T07:31:47.967Z,51.20
2024-02-28T07:33:22.541Z,49.93
2024-02-28T07:34:54.733Z,51.03
2024-02-28T07:36:27.859Z,56.63
2024-02-28T07:38:00.116Z,56.83
2024-02-28T07:39:33.203Z,63.93
2024-02-28T07:41:06.149Z,56.93
2024-02-28T07:42:39.280Z,62.77
2024-02-28T07:44:12.421Z,67.97
2024-02-28T07:45:45.665Z,67.87
2024-02-28T07:47:17.790Z,69.07
2024-02-28T07:48:52.350Z,67.33
2024-02-28T07:50:24.497Z,69.53
2024-02-28T07:51:57.626Z,64.33
2024-02-28T07:53:29.728Z,57.90
2024-02-28T07:55:03.060Z,62.00
2024-02-28T07:56:35.536Z,54.43
2024-02-28T07:58:08.797Z,51.50
2024-02-28T07:59:41.403Z,54.20
2024-02-28T08:01:14.684Z,45.67
2024-02-28T08:02:47.082Z,50.03
2024-02-28T08:04:21.616Z,45.77
2024-02-28T08:05:53.731Z,45.10
2024-02-28T08:07:26.867Z,45.90
2024-02-28T08:08:58.960Z,45.10
2024-02-28T08:10:32.303Z,47.37
2024-02-28T08:12:05.013Z,46.87
2024-02-28T08:13:38.094Z,41.57
2024-02-28T08:15:11.213Z,47.10
2024-02-28T08:16:44.301Z,44.03
2024-02-28T08:18:16.853Z,47.70
2024-02-28T08:19:51.887Z,47.97
2024-02-28T08:21:24.000Z,61.67
2024-02-28T08:22:58.269Z,62.67
2024-02-28T08:24:31.168Z,52.47
2024-02-28T08:26:05.109Z,57.70
2024-02-28T08:27:37.235Z,56.23
2024-02-28T08:29:10.526Z,55.60
2024-02-28T08:30:42.716Z,50.13
2024-02-28T08:32:15.817Z,49.63
2024-02-28T08:33:48.092Z,51.07
2024-02-28T08:35:24.427Z,52.20
2024-02-28T08:36:56.642Z,54.97
2024-02-28T08:38:29.776Z,52.13
2024-02-28T08:40:02.257Z,49.33
2024-02-28T08:41:36.405Z,54.47
2024-02-28T08:43:08.686Z,51.87
2024-02-28T08:44:41.960Z,44.67
2024-02-28T08:46:16.977Z,43.57
2024-02-28T08:47:49.267Z,40.83
2024-02-28T08:49:22.404Z,39.90
2024-02-28T08:50:55.900Z,43.90
2024-02-28T08:52:29.023Z,47.50
2024-02-28T08:54:01.584Z,48.33
2024-02-28T08:55:34.795Z,44.33
2024-02-28T08:57:06.902Z,47.33
2024-02-28T08:58:40.059Z,45.50
2024-02-28T09:00:13.769Z,43.50
2024-02-28T09:01:47.280Z,48.67
2024-02-28T09:03:20.737Z,46.17
2024-02-28T09:04:57.718Z,48.70
2024-02-28T09:06:31.426Z,46.63
2024-02-28T09:08:04.705Z,47.63
2024-02-28T09:09:39.192Z,51.73
2024-02-28T09:11:12.503Z,51.57
2024-02-28T09:12:44.688Z,48.77
2024-02-28T09:14:18.644Z,47.60
2024-02-28T09:15:54.314Z,45.27
2024-02-28T09:17:28.559Z,47.97
2024-02-28T09:19:00.759Z,49.40
2024-02-28T09:20:34.142Z,50.57
2024-02-28T09:22:08.010Z,42.73
2024-02-28T09:23:41.136Z,44.47
2024-02-28T09:25:13.295Z,41.73
2024-02-28T09:26:46.435Z,48.57
2024-02-28T09:28:18.912Z,45.50
2024-02-28T09:29:52.324Z,47.63
2024-02-28T09:31:25.482Z,44.63
2024-02-28T09:32:58.097Z,44.60
2024-02-28T09:34:32.034Z,50.80
2024-02-28T09:36:06.727Z,54.27
2024-02-28T09:37:40.455Z,53.33
2024-02-28T09:39:14.014Z,44.73
2024-02-28T09:40:49.145Z,45.30
2024-02-28T09:42:21.817Z,44.17
2024-02-28T09:43:55.797Z,43.97
2024-02-28T09:45:31.631Z,41.20
2024-02-28T09:47:05.585Z,46.80
2024-02-28T09:48:39.779Z,44.43
2024-02-28T09:50:14.715Z,42.80
2024-02-28T09:51:50.873Z,38.97
2024-02-28T09:53:25.393Z,37.50
2024-02-28T09:54:58.169Z,43.90
2024-02-28T09:56:31.398Z,40.23
2024-02-28T09:58:04.173Z,44.40
2024-02-28T09:59:47.039Z,38.10
2024-02-28T10:01:26.607Z,42.20
2024-02-28T10:03:02.030Z,42.93
2024-02-28T10:04:35.043Z,36.97
2024-02-28T10:06:09.594Z,41.47
2024-02-28T10:07:43.270Z,40.13
2024-02-28T10:09:18.563Z,38.03
2024-02-28T10:10:55.689Z,36.67
2024-02-28T10:12:28.945Z,41.70
2024-02-28T10:14:02.576Z,39.37
2024-02-28T10:15:36.894Z,39.73
2024-02-28T10:17:09.519Z,46.37
2024-02-28T10:18:42.647Z,52.53
2024-02-28T10:20:15.083Z,55.37
2024-02-28T10:21:49.181Z,56.00
2024-02-28T10:23:21.369Z,55.27
2024-02-28T10:25:00.813Z,54.60
2024-02-28T10:26:36.988Z,53.03
2024-02-28T10:28:10.126Z,53.47
2024-02-28T10:29:45.197Z,55.83
2024-02-28T10:31:18.349Z,54.80
2024-02-28T10:32:51.009Z,52.07
2024-02-28T10:34:24.232Z,53.63
2024-02-28T10:35:57.077Z,51.40
2024-02-28T10:37:32.415Z,50.80
2024-02-28T10:39:05.161Z,48.63
2024-02-28T10:40:39.999Z,46.80
2024-02-28T10:42:16.924Z,47.37
2024-02-28T10:43:50.916Z,49.30
2024-02-28T10:45:39.071Z,53.27
2024-02-28T10:47:19.200Z,49.40
2024-02-28T10:48:54.418Z,54.07
2024-02-28T10:50:27.643Z,49.87
2024-02-28T10:52:00.849Z,54.13
2024-02-28T10:53:39.399Z,52.03
2024-02-28T10:55:11.594Z,53.07
2024-02-28T10:56:46.443Z,42.60
2024-02-28T10:58:23.383Z,48.17
2024-02-28T10:59:58.154Z,49.30
2024-02-28T11:01:30.668Z,48.37
2024-02-28T11:03:05.332Z,48.33
2024-02-28T11:04:37.874Z,51.07
2024-02-28T11:06:19.736Z,48.43
2024-02-28T11:07:54.418Z,49.80
2024-02-28T11:09:29.543Z,49.63
2024-02-28T11:11:05.958Z,46.93
2024-02-28T11:12:40.091Z,44.90
2024-02-28T11:14:17.457Z,46.23
2024-02-28T11:15:49.730Z,44.10
2024-02-28T11:17:28.999Z,46.33
2024-02-28T11:19:05.494Z,45.80
2024-02-28T11:20:37.741Z,43.40
2024-02-28T11:22:13.722Z,43.33
2024-02-28T11:23:48.340Z,44.10
2024-02-28T11:25:21.540Z,45.90
2024-02-28T11:26:54.119Z,48.60
2024-02-28T11:28:29.915Z,41.17
2024-02-28T11:30:02.834Z,49.13
2024-02-28T11:31:36.860Z,40.53
2024-02-28T11:33:10.149Z,45.43
2024-02-28T11:34:44.850Z,46.57
2024-02-28T11:36:18.191Z,43.77
2024-02-28T11:37:51.479Z,46.00
2024-02-28T11:39:26.053Z,46.37
2024-02-28T11:40:58.583Z,49.60
2024-02-28T11:42:31.767Z,46.23
2024-02-28T11:44:05.507Z,45.47
2024-02-28T11:45:42.531Z,47.47
2024-02-28T11:47:14.769Z,46.97
2024-02-28T11:48:48.195Z,45.17
2024-02-28T11:50:20.413Z,44.77
2024-02-28T11:51:53.672Z,44.57
2024-02-28T11:53:27.861Z,44.47
2024-02-28T11:55:01.071Z,40.43
2024-02-28T11:56:33.651Z,39.53
2024-02-28T11:58:10.867Z,40.57
2024-02-28T11:59:45.241Z,37.10
2024-02-28T12:01:18.418Z,39.37
2024-02-28T12:02:53.241Z,37.37
2024-02-28T12:04:26.387Z,35.23
2024-02-28T12:06:00.595Z,36.70
2024-02-28T12:07:33.845Z,38.43
2024-02-28T12:09:09.907Z,36.57
2024-02-28T12:10:42.386Z,39.30
2024-02-28T12:12:15.659Z,37.97
2024-02-28T12:13:48.746Z,35.67
2024-02-28T12:15:23.854Z,35.00
2024-02-28T12:16:58.836Z,36.07
2024-02-28T12:18:32.185Z,37.50
2024-02-28T12:20:07.194Z,37.90
2024-02-28T12:21:40.220Z,36.73
2024-02-28T12:23:13.463Z,37.70
2024-02-28T12:24:46.042Z,35.37
2024-02-28T12:26:20.057Z,34.87
2024-02-28T12:27:52.206Z,36.10
2024-02-28T12:29:25.316Z,35.67
2024-02-28T12:30:59.310Z,35.17
2024-02-28T12:32:32.890Z,35.10
2024-02-28T12:34:05.726Z,34.70
2024-02-28T12:35:39.243Z,35.60
2024-02-28T12:37:11.471Z,35.93
2024-02-28T12:38:44.699Z,33.73
2024-02-28T12:40:18.381Z,36.53
2024-02-28T12:41:51.618Z,35.00
2024-02-28T12:43:23.772Z,35.30
2024-02-28T12:44:57.139Z,34.23
2024-02-28T12:46:30.646Z,38.53
2024-02-28T12:48:03.762Z,34.03
2024-02-28T12:49:35.944Z,35.30
2024-02-28T12:51:12.652Z,37.07
2024-02-28T12:52:44.786Z,35.23
2024-02-28T12:54:19.505Z,34.20
2024-02-28T12:55:51.672Z,37.47
2024-02-28T12:57:24.775Z,35.27
2024-02-28T12:58:56.891Z,35.43
2024-02-28T13:00:30.079Z,36.70
2024-02-28T13:02:04.012Z,41.80
2024-02-28T13:03:37.111Z,39.77
2024-02-28T13:05:10.653Z,40.50
2024-02-28T13:06:43.833Z,38.47
2024-02-28T13:08:16.134Z,36.97
2024-02-28T13:09:50.306Z,39.63
2024-02-28T13:11:23.796Z,36.50
2024-02-28T13:12:56.953Z,36.17
2024-02-28T13:14:30.201Z,37.53
2024-02-28T13:16:02.380Z,37.13
2024-02-28T13:17:36.933Z,39.23
2024-02-28T13:19:09.165Z,40.57
2024-02-28T13:20:42.605Z,40.50
2024-02-28T13:22:14.737Z,41.23
2024-02-28T13:23:48.460Z,41.50
2024-02-28T13:25:20.965Z,39.60
2024-02-28T13:26:54.120Z,39.97
2024-02-28T13:28:30.659Z,38.00
2024-02-28T13:30:04.111Z,40.50
2024-02-28T13:31:36.470Z,41.80
2024-02-28T13:33:11.191Z,41.17
2024-02-28T13:34:45.430Z,42.17
2024-02-28T13:36:19.917Z,40.47
2024-02-28T13:37:54.327Z,43.93
2024-02-28T13:39:28.385Z,41.27
2024-02-28T13:41:01.140Z,38.83
2024-02-28T13:42:34.287Z,42.63
2024-02-28T13:44:06.732Z,38.90
2024-02-28T13:45:42.676Z,41.10
2024-02-28T13:47:16.004Z,41.03
2024-02-28T13:48:50.534Z,39.13
2024-02-28T13:50:23.338Z,39.70
2024-02-28T13:51:56.614Z,40.30
2024-02-28T13:53:28.770Z,39.93
2024-02-28T13:55:02.039Z,39.37
2024-02-28T13:56:35.026Z,42.10
2024-02-28T13:58:09.446Z,42.70
2024-02-28T13:59:41.578Z,41.47
2024-02-28T14:01:16.563Z,41.63
2024-02-28T14:02:48.754Z,42.03
2024-02-28T14:04:23.425Z,37.80
2024-02-28T14:05:55.532Z,40.27
2024-02-28T14:07:28.882Z,38.57
2024-02-28T14:09:00.966Z,38.70
2024-02-28T14:10:34.076Z,37.03
2024-02-28T14:12:07.665Z,40.60
2024-02-28T14:13:40.954Z,38.57
2024-02-28T14:15:14.647Z,39.77
2024-02-28T14:16:46.777Z,40.63
2024-02-28T14:18:20.079Z,41.20
2024-02-28T14:19:53.829Z,38.73
2024-02-28T14:21:26.972Z,36.03
2024-02-28T14:22:59.390Z,41.33
2024-02-28T14:24:32.668Z,38.07
2024-02-28T14:26:05.087Z,39.87
2024-02-28T14:27:38.451Z,42.23
2024-02-28T14:29:10.609Z,39.57
2024-02-28T14:30:44.182Z,39.70
2024-02-28T14:32:16.820Z,41.53
2024-02-28T14:33:49.923Z,39.87
2024-02-28T14:35:23.592Z,39.20
2024-02-28T14:36:56.849Z,40.27
2024-02-28T14:38:28.975Z,38.20
2024-02-28T14:40:02.437Z,38.97
2024-02-28T14:41:35.854Z,39.13
2024-02-28T14:43:09.738Z,39.37
2024-02-28T14:44:41.936Z,39.73
2024-02-28T14:46:15.563Z,41.57
2024-02-28T14:47:47.725Z,41.80
2024-02-28T14:49:20.838Z,38.93
2024-02-28T14:50:54.751Z,35.57
2024-02-28T14:52:28.537Z,37.63
2024-02-28T14:54:01.183Z,36.20
2024-02-28T14:55:34.277Z,35.57
2024-02-28T14:57:06.707Z,36.77
2024-02-28T14:58:40.390Z,35.97
2024-02-28T15:00:15.207Z,35.67
2024-02-28T15:01:48.947Z,34.73
2024-02-28T15:03:21.712Z,39.00
2024-02-28T15:04:54.947Z,36.23
2024-02-28T15:06:28.485Z,36.67
2024-02-28T15:08:01.674Z,39.87
2024-02-28T15:09:34.832Z,32.87
2024-02-28T15:11:08.671Z,35.60
2024-02-28T15:12:42.179Z,38.77
2024-02-28T15:14:15.439Z,35.27
2024-02-28T15:15:47.753Z,30.10
2024-02-28T15:17:20.843Z,36.70
2024-02-28T15:18:54.088Z,33.27
2024-02-28T15:20:27.612Z,33.90
2024-02-28T15:22:01.075Z,35.33
2024-02-28T15:23:34.263Z,31.83
2024-02-28T15:25:07.158Z,33.30
2024-02-28T15:26:46.234Z,31.13
2024-02-28T15:28:19.617Z,34.93
2024-02-28T15:29:52.848Z,32.23
2024-02-28T15:31:25.002Z,33.13
2024-02-28T15:32:58.183Z,31.07
2024-02-28T15:34:30.360Z,32.63
2024-02-28T15:36:04.758Z,30.20
2024-02-28T15:37:38.427Z,29.50
2024-02-28T15:39:11.933Z,30.17
2024-02-28T15:40:44.420Z,28.23
2024-02-28T15:42:17.622Z,27.77
2024-02-28T15:43:50.523Z,27.47
2024-02-28T15:45:23.670Z,31.30
2024-02-28T15:46:58.083Z,29.50
2024-02-28T15:48:31.464Z,31.27
2024-02-28T15:50:04.489Z,32.93
2024-02-28T15:51:37.762Z,31.60
2024-02-28T15:53:12.331Z,33.13
2024-02-28T15:54:45.951Z,33.93
2024-02-28T15:56:18.124Z,34.57
2024-02-28T15:57:51.207Z,35.30
2024-02-28T15:59:23.436Z,32.83
2024-02-28T16:00:56.865Z,35.57
2024-02-28T16:02:29.065Z,35.57
2024-02-28T16:04:02.243Z,35.07
2024-02-28T16:05:35.388Z,38.47
2024-02-28T16:07:08.962Z,34.87
2024-02-28T16:08:44.202Z,33.63
2024-02-28T16:10:16.749Z,37.37
2024-02-28T16:11:49.906Z,32.67
2024-02-28T16:13:23.201Z,37.83
2024-02-28T16:14:55.410Z,40.00
2024-02-28T16:16:28.622Z,34.80
2024-02-28T16:18:00.816Z,36.67
2024-02-28T16:19:34.048Z,34.23
2024-02-28T16:21:07.093Z,36.13
2024-02-28T16:22:41.152Z,35.17
2024-02-28T16:24:15.139Z,36.37
2024-02-28T16:25:48.334Z,34.43
2024-02-28T16:27:21.002Z,35.73
2024-02-28T16:28:54.076Z,33.27
2024-02-28T16:30:26.260Z,35.10
2024-02-28T16:31:59.589Z,38.53
2024-02-28T16:33:31.785Z,34.97
2024-02-28T16:35:05.593Z,35.37
2024-02-28T16:36:37.678Z,38.23
2024-02-28T16:38:10.888Z,35.53
2024-02-28T16:39:44.368Z,36.13
2024-02-28T16:41:17.558Z,35.13
2024-02-28T16:42:49.713Z,39.47
2024-02-28T16:44:22.861Z,37.90
2024-02-28T16:45:56.652Z,44.23
2024-02-28T16:47:30.383Z,39.73
2024-02-28T16:49:03.859Z,41.50
2024-02-28T16:50:36.275Z,45.17
2024-02-28T16:52:11.483Z,43.13
2024-02-28T16:53:43.680Z,42.53
2024-02-28T16:55:18.197Z,46.03
2024-02-28T16:56:50.404Z,43.73
2024-02-28T16:58:23.559Z,44.57
2024-02-28T16:59:55.722Z,45.07
2024-02-28T17:01:28.924Z,52.77
2024-02-28T17:03:01.374Z,51.20
2024-02-28T17:04:35.695Z,47.87
2024-02-28T17:06:07.898Z,47.70
2024-02-28T17:07:40.961Z,48.07
2024-02-28T17:09:13.909Z,49.40
2024-02-28T17:10:48.364Z,48.97
2024-02-28T17:12:20.487Z,52.10
2024-02-28T17:13:53.543Z,48.97
2024-02-28T17:15:25.656Z,51.70
2024-02-28T17:16:58.767Z,48.87
2024-02-28T17:18:31.277Z,50.43
2024-02-28T17:20:08.146Z,50.43
2024-02-28T17:21:40.842Z,47.60
2024-02-28T17:23:13.943Z,46.47
2024-02-28T17:24:46.206Z,51.43
2024-02-28T17:26:20.692Z,51.87
2024-02-28T17:27:52.830Z,53.17
2024-02-28T17:29:26.030Z,53.60
2024-02-28T17:30:58.248Z,55.27
2024-02-28T17:32:31.439Z,51.90
2024-02-28T17:34:03.728Z,50.50
2024-02-28T17:35:36.959Z,53.10
2024-02-28T17:37:09.289Z,50.70
2024-02-28T17:38:42.504Z,47.45
2024-02-28T17:40:15.098Z,49.83
2024-02-28T17:41:49.765Z,53.70
2024-02-28T17:43:22.155Z,57.07
2024-02-28T17:44:55.246Z,57.20
2024-02-28T17:46:27.637Z,56.17
2024-02-28T17:48:00.977Z,61.83
2024-02-28T17:49:33.116Z,60.13
2024-02-28T17:51:08.438Z,56.40
2024-02-28T17:52:42.468Z,63.83
2024-02-28T17:54:16.633Z,58.72
2024-02-28T17:55:48.809Z,57.27
2024-02-28T17:57:23.329Z,57.13
2024-02-28T17:58:55.489Z,60.97
2024-02-28T18:00:28.723Z,56.67
2024-02-28T18:02:01.438Z,55.08
2024-02-28T18:03:34.731Z,54.50
2024-02-28T18:05:09.020Z,55.65
2024-02-28T18:06:41.397Z,55.33
2024-02-28T18:08:14.722Z,57.63
2024-02-28T18:09:48.051Z,56.35
2024-02-28T18:11:26.466Z,55.60
2024-02-28T18:13:00.990Z,57.60
2024-02-28T18:14:35.715Z,121.82
2024-02-28T18:16:09.151Z,81.20
2024-02-28T18:17:42.431Z,64.47
2024-02-28T18:19:15.135Z,63.70
2024-02-28T18:20:48.337Z,60.42
2024-02-28T18:22:20.796Z,63.35
2024-02-28T18:23:56.015Z,63.45
2024-02-28T18:25:28.265Z,57.00
2024-02-28T18:27:01.618Z,60.85
2024-02-28T18:28:38.776Z,67.85
2024-02-28T18:30:12.429Z,68.70
2024-02-28T18:31:44.603Z,66.95
2024-02-28T18:33:17.821Z,69.80
2024-02-28T18:34:52.960Z,69.85
2024-02-28T18:36:27.597Z,73.60
2024-02-28T18:38:01.446Z,78.32
2024-02-28T18:39:34.569Z,70.65
2024-02-28T18:41:06.835Z,71.35
2024-02-28T18:42:39.964Z,68.22
2024-02-28T18:44:14.741Z,70.43
2024-02-28T18:45:48.087Z,76.53
2024-02-28T18:47:20.249Z,81.50
2024-02-28T18:48:53.441Z,78.22
2024-02-28T18:50:25.766Z,76.03
2024-02-28T18:51:58.877Z,75.22
2024-02-28T18:53:31.004Z,81.65
2024-02-28T18:55:04.883Z,82.60
2024-02-28T18:56:38.107Z,84.53
2024-02-28T18:58:11.474Z,85.75
2024-02-28T18:59:46.306Z,86.00
2024-02-28T19:01:19.986Z,87.88
2024-02-28T19:02:54.755Z,88.60
2024-02-28T19:04:27.663Z,83.95
2024-02-28T19:06:00.898Z,82.47
2024-02-28T19:07:33.971Z,80.93
2024-02-28T19:09:06.849Z,75.43
2024-02-28T19:10:41.965Z,90.82
2024-02-28T19:12:15.040Z,87.50
2024-02-28T19:13:48.118Z,81.38
2024-02-28T19:15:21.609Z,79.13
2024-02-28T19:16:55.026Z,83.97
2024-02-28T19:18:27.884Z,86.18
2024-02-28T19:20:01.044Z,95.18
2024-02-28T19:21:35.314Z,92.03
2024-02-28T19:23:08.525Z,97.07
2024-02-28T19:24:41.080Z,99.10
2024-02-28T19:26:14.539Z,100.35
2024-02-28T19:27:47.667Z,98.82
2024-02-28T19:29:19.749Z,107.55
2024-02-28T19:30:54.402Z,99.32
2024-02-28T19:32:26.552Z,97.68
2024-02-28T19:33:59.680Z,100.80
2024-02-28T19:35:36.484Z,96.82
2024-02-28T19:37:09.632Z,94.45
2024-02-28T19:38:43.586Z,95.30
2024-02-28T19:40:17.048Z,91.63
2024-02-28T19:41:49.196Z,94.18
2024-02-28T19:43:22.277Z,103.75
2024-02-28T19:44:54.442Z,97.43
2024-02-28T19:46:29.012Z,95.35
2024-02-28T19:48:01.187Z,88.75
2024-02-28T19:49:37.299Z,95.40
2024-02-28T19:51:10.837Z,92.28
2024-02-28T19:52:42.902Z,91.50
2024-02-28T19:54:16.064Z,91.30
2024-02-28T19:55:48.231Z,93.13
2024-02-28T19:57:21.331Z,102.05
2024-02-28T19:58:53.418Z,98.75
2024-02-28T20:00:27.460Z,100.35
2024-02-28T20:02:01.483Z,95.28